Time;durP1;ratioP1;P1;durP2;ratioP2;P2;SDS_P1;SDS_P2;PMS_P1;PMS_P2;Temp;Humidity;BMP_temperature;BMP_pressure;BME280_temperature;BME280_humidity;BME280_pressure;Samples;Min_cycle;Max_cycle;Signal;HPM_P1;HPM_P2
2022/06/12 00:00:30;;;;;;;4.07;2.60;;;19.60;99.90;;;;;;4995198;28;20390;-87
2022/06/12 00:03:01;;;;;;;3.25;2.83;;;19.70;99.90;;;;;;4994619;28;20044;-86
2022/06/12 00:05:31;;;;;;;4.10;2.60;;;19.70;99.90;;;;;;4993393;28;20024;-87
2022/06/12 00:07:58;;;;;;;4.60;2.80;;;19.60;99.90;;;;;;4994575;28;20085;-87
2022/06/12 00:10:24;;;;;;;3.38;3.08;;;19.50;99.90;;;;;;4979242;28;20031;-87
2022/06/12 00:12:51;;;;;;;3.95;2.95;;;19.50;99.90;;;;;;4995852;28;20030;-88
2022/06/12 00:15:20;;;;;;;4.05;2.85;;;19.50;99.90;;;;;;4976041;28;20521;-87
2022/06/12 00:17:50;;;;;;;4.78;3.03;;;19.50;99.90;;;;;;4975837;28;20038;-88
2022/06/12 00:20:17;;;;;;;7.65;3.25;;;19.50;99.90;;;;;;4993339;28;20454;-87
2022/06/12 00:22:45;;;;;;;5.05;3.10;;;19.50;99.90;;;;;;4993762;28;20031;-89
2022/06/12 00:25:16;;;;;;;6.38;3.28;;;19.40;99.90;;;;;;4977211;28;20503;-88
2022/06/12 00:27:43;;;;;;;3.50;2.95;;;19.30;99.90;;;;;;4995943;28;20505;-88
2022/06/12 00:30:12;;;;;;;6.10;3.38;;;19.20;99.90;;;;;;4994128;28;20027;-89
2022/06/12 00:32:41;;;;;;;4.25;3.28;;;19.10;99.90;;;;;;4991589;28;20495;-88
2022/06/12 00:35:09;;;;;;;5.70;3.60;;;19.10;99.90;;;;;;4993583;28;20514;-88
2022/06/12 00:37:36;;;;;;;4.43;3.60;;;19.20;99.90;;;;;;4994340;28;20227;-89
2022/06/12 00:40:04;;;;;;;4.80;3.70;;;19.20;99.90;;;;;;4995109;28;20069;-87
2022/06/12 00:42:47;;;;;;;8.13;4.10;;;19.40;99.90;;;;;;4994710;28;20084;-87
2022/06/12 00:45:38;;;;;;;7.07;3.83;;;19.30;99.90;;;;;;4976989;28;20030;-88
2022/06/12 00:48:08;;;;;;;4.85;3.80;;;19.20;99.90;;;;;;4969873;28;20093;-88
2022/06/12 00:50:37;;;;;;;5.72;3.78;;;19.10;99.90;;;;;;4971261;28;20394;-89
2022/06/12 00:53:03;;;;;;;4.88;3.90;;;19.10;99.90;;;;;;4993556;28;20037;-89
2022/06/12 00:55:59;;;;;;;5.22;3.58;;;18.90;99.90;;;;;;4992170;28;20113;-88
2022/06/12 00:58:30;;;;;;;6.03;3.45;;;18.80;99.90;;;;;;4995823;28;20499;-88
2022/06/12 01:00:56;;;;;;;5.78;3.88;;;18.60;99.90;;;;;;4976649;28;20034;-89
2022/06/12 01:03:22;;;;;;;6.90;3.50;;;18.70;99.90;;;;;;4992105;28;20564;-88
2022/06/12 01:08:33;;;;;;;5.28;3.60;;;18.60;99.90;;;;;;4993999;28;20033;-88
2022/06/12 01:11:03;;;;;;;4.72;3.55;;;18.60;99.90;;;;;;4976830;28;20076;-88
2022/06/12 01:13:32;;;;;;;3.70;3.40;;;18.40;99.90;;;;;;4993747;28;20170;-88
2022/06/12 01:16:05;;;;;;;3.92;3.58;;;18.30;99.90;;;;;;4994552;28;20042;-88
2022/06/12 01:18:36;;;;;;;4.40;3.30;;;18.30;99.90;;;;;;4977103;28;20038;-89
2022/06/12 01:21:05;;;;;;;4.15;3.40;;;18.30;99.90;;;;;;4993591;28;20057;-87
2022/06/12 01:23:58;;;;;;;6.82;3.78;;;18.30;99.90;;;;;;4994667;28;20061;-87
2022/06/12 01:26:29;;;;;;;3.67;3.30;;;18.30;99.90;;;;;;4984507;28;20077;-88
2022/06/12 01:29:36;;;;;;;6.75;3.40;;;18.20;99.90;;;;;;4978382;28;20035;-89
2022/06/12 01:32:26;;;;;;;5.57;3.10;;;18.20;99.90;;;;;;4973049;28;20069;-88
2022/06/12 01:35:03;;;;;;;5.53;3.60;;;18.20;99.90;;;;;;4993017;28;20519;-89
2022/06/12 01:37:38;;;;;;;7.93;3.25;;;18.20;99.90;;;;;;4962926;28;20505;-89
2022/06/12 01:40:32;;;;;;;4.68;3.20;;;18.10;99.90;;;;;;4995105;28;20078;-88
2022/06/12 01:43:18;;;;;;;3.42;3.10;;;18.10;99.90;;;;;;4991572;28;20026;-87
2022/06/12 01:46:08;;;;;;;3.80;3.03;;;18.10;99.90;;;;;;4994414;28;20015;-89
2022/06/12 01:48:48;;;;;;;3.83;3.35;;;18.10;99.90;;;;;;4975994;28;20034;-88
2022/06/12 01:51:36;;;;;;;6.25;3.47;;;18.10;99.90;;;;;;4993366;28;20023;-88
2022/06/12 01:54:27;;;;;;;5.05;3.10;;;18.10;99.90;;;;;;4978763;28;20041;-88
2022/06/12 01:57:06;;;;;;;5.18;3.58;;;18.00;99.90;;;;;;4989015;28;20037;-89
2022/06/12 01:59:45;;;;;;;4.18;3.28;;;18.00;99.90;;;;;;4992164;28;20030;-88
2022/06/12 02:02:21;;;;;;;7.00;2.97;;;18.00;99.90;;;;;;4973313;28;20034;-88
2022/06/12 02:05:15;;;;;;;5.13;3.13;;;17.70;99.90;;;;;;4991039;28;20038;-88
2022/06/12 02:08:03;;;;;;;4.95;3.15;;;17.70;99.90;;;;;;4989074;28;20022;-89
2022/06/12 02:10:35;;;;;;;3.65;3.28;;;17.70;99.90;;;;;;4976157;28;20023;-88
2022/06/12 02:13:15;;;;;;;4.70;3.33;;;17.70;99.90;;;;;;4992494;28;20038;-88
2022/06/12 02:15:49;;;;;;;5.35;3.85;;;17.70;99.90;;;;;;4993141;28;20402;-88
2022/06/12 02:18:33;;;;;;;4.25;3.40;;;17.60;99.90;;;;;;4991718;28;20561;-89
2022/06/12 02:21:10;;;;;;;6.13;3.25;;;17.60;99.90;;;;;;4993098;28;20038;-88
2022/06/12 02:23:59;;;;;;;5.40;3.05;;;17.40;99.90;;;;;;4989687;28;20529;-88
2022/06/12 02:26:36;;;;;;;4.63;3.28;;;17.40;99.90;;;;;;4981354;28;20073;-87
2022/06/12 02:29:09;;;;;;;4.28;3.35;;;17.40;99.90;;;;;;4982965;28;20101;-88
2022/06/12 02:31:41;;;;;;;3.53;3.03;;;17.40;99.90;;;;;;4994221;28;20030;-88
2022/06/12 02:34:17;;;;;;;6.65;3.38;;;17.50;99.90;;;;;;4992698;28;20054;-88
2022/06/12 02:36:47;;;;;;;3.72;3.40;;;17.70;99.90;;;;;;4992875;28;20085;-88
2022/06/12 02:39:30;;;;;;;3.25;3.03;;;17.60;99.90;;;;;;4991509;28;20022;-89
2022/06/12 02:42:13;;;;;;;3.60;3.30;;;17.40;99.90;;;;;;4986029;28;20557;-88
2022/06/12 02:44:49;;;;;;;5.03;3.70;;;17.40;99.90;;;;;;4990040;28;20091;-88
2022/06/12 02:47:22;;;;;;;3.35;3.00;;;17.50;99.90;;;;;;4985132;28;20031;-88
2022/06/12 02:49:51;;;;;;;5.45;3.60;;;17.50;99.90;;;;;;4977899;28;20495;-88
2022/06/12 02:52:23;;;;;;;4.25;3.40;;;17.50;99.90;;;;;;4989042;28;20069;-88
2022/06/12 02:55:07;;;;;;;4.90;3.90;;;17.80;99.90;;;;;;4993847;28;20069;-89
2022/06/12 02:58:03;;;;;;;4.70;3.63;;;17.40;99.90;;;;;;4975167;28;20397;-88
2022/06/12 03:00:57;;;;;;;6.07;3.42;;;17.40;99.90;;;;;;4992556;28;20057;-88
2022/06/12 03:03:35;;;;;;;7.97;3.97;;;17.20;99.90;;;;;;4989052;28;20053;-88
2022/06/12 03:06:01;;;;;;;4.32;3.67;;;17.20;99.90;;;;;;4960201;28;20033;-88
2022/06/12 03:08:31;;;;;;;4.57;3.58;;;17.30;99.90;;;;;;4982543;28;20125;-88
2022/06/12 03:11:07;;;;;;;4.40;3.50;;;17.30;99.90;;;;;;4977126;28;20077;-88
2022/06/12 03:13:33;;;;;;;3.92;3.30;;;17.10;99.90;;;;;;4988705;28;20034;-88
2022/06/12 03:16:10;;;;;;;4.78;3.65;;;17.00;99.90;;;;;;4990175;28;20034;-88
2022/06/12 03:18:39;;;;;;;4.88;3.63;;;16.90;99.90;;;;;;4993167;28;20121;-88
2022/06/12 03:21:31;;;;;;;5.22;3.78;;;17.00;99.90;;;;;;4975266;28;20107;-88
2022/06/12 03:24:20;;;;;;;6.35;4.20;;;17.10;99.90;;;;;;4976664;28;20850;-88
2022/06/12 03:26:57;;;;;;;4.30;3.90;;;17.30;99.90;;;;;;4977459;28;20128;-88
2022/06/12 03:29:29;;;;;;;5.60;4.22;;;17.30;99.90;;;;;;4957783;28;20180;-88
2022/06/12 03:32:18;;;;;;;5.38;3.63;;;17.10;99.90;;;;;;4974388;28;20491;-88
2022/06/12 03:34:54;;;;;;;4.30;3.70;;;17.00;99.90;;;;;;4974459;28;20050;-88
2022/06/12 03:37:26;;;;;;;5.88;3.42;;;16.90;99.90;;;;;;4990546;28;20403;-87
2022/06/12 03:40:10;;;;;;;6.55;4.00;;;16.80;99.90;;;;;;4993297;28;20065;-88
2022/06/12 03:42:55;;;;;;;4.07;3.50;;;16.70;99.90;;;;;;4992481;28;20035;-87
2022/06/12 03:45:31;;;;;;;4.50;3.58;;;16.70;99.90;;;;;;4974575;28;20026;-87
2022/06/12 03:48:29;;;;;;;3.80;3.50;;;16.80;99.90;;;;;;4991340;28;20030;-89
2022/06/12 03:50:57;;;;;;;4.13;3.72;;;16.70;99.90;;;;;;4984181;28;20105;-88
2022/06/12 03:53:34;;;;;;;4.72;3.40;;;16.80;99.90;;;;;;4990130;28;20045;-88
2022/06/12 03:59:23;;;;;;;6.55;3.58;;;16.70;99.90;;;;;;4980337;28;20037;-88
2022/06/12 04:01:51;;;;;;;4.78;3.83;;;16.90;99.90;;;;;;4987179;28;20492;-88
2022/06/12 04:04:20;;;;;;;5.35;3.60;;;17.00;99.90;;;;;;4975683;28;20038;-88
2022/06/12 04:06:47;;;;;;;6.03;3.70;;;17.40;99.90;;;;;;4992849;28;20065;-88
2022/06/12 04:09:23;;;;;;;7.25;3.50;;;17.00;99.90;;;;;;4992789;28;20030;-87
2022/06/12 04:11:54;;;;;;;5.57;3.40;;;16.90;99.90;;;;;;4989069;28;20027;-89
2022/06/12 04:14:24;;;;;;;6.20;4.05;;;16.80;99.90;;;;;;4990500;28;20069;-87
2022/06/12 04:16:54;;;;;;;4.00;3.53;;;16.80;99.90;;;;;;4989340;28;20034;-88
2022/06/12 04:19:24;;;;;;;5.68;3.67;;;16.80;99.90;;;;;;4972312;28;20404;-87
2022/06/12 04:22:09;;;;;;;6.47;3.72;;;16.80;99.90;;;;;;4973391;28;20019;-88
2022/06/12 04:24:42;;;;;;;7.10;3.92;;;16.80;99.90;;;;;;4992440;28;20027;-88
2022/06/12 04:27:12;;;;;;;5.80;3.65;;;16.90;99.90;;;;;;4989478;28;20029;-87
2022/06/12 04:29:47;;;;;;;5.15;3.40;;;17.00;99.90;;;;;;4973311;28;20073;-88
2022/06/12 04:32:13;;;;;;;6.50;3.47;;;17.10;99.90;;;;;;4985317;28;20109;-88
2022/06/12 04:34:41;;;;;;;5.57;3.50;;;17.00;99.90;;;;;;4989932;28;20507;-88
2022/06/12 04:37:20;;;;;;;5.57;3.70;;;17.20;99.90;;;;;;4991090;28;20027;-88
2022/06/12 04:39:46;;;;;;;3.75;3.40;;;17.30;99.90;;;;;;4973368;28;20511;-88
2022/06/12 04:42:15;;;;;;;5.53;3.70;;;17.30;99.90;;;;;;4987409;28;20030;-87
2022/06/12 04:44:41;;;;;;;5.32;3.80;;;17.40;99.90;;;;;;4993031;28;20596;-88
2022/06/12 04:47:10;;;;;;;5.85;3.28;;;17.40;99.90;;;;;;4992156;28;20100;-88
2022/06/12 04:49:37;;;;;;;4.28;3.60;;;17.40;99.90;;;;;;4975004;28;20125;-87
2022/06/12 04:52:06;;;;;;;5.53;3.70;;;17.50;99.90;;;;;;4995673;28;20046;-88
2022/06/12 04:54:33;;;;;;;4.20;3.47;;;17.40;99.90;;;;;;4995213;28;20034;-88
2022/06/12 04:56:59;;;;;;;4.20;3.60;;;17.30;99.90;;;;;;4993385;28;20035;-87
2022/06/12 04:59:25;;;;;;;4.97;3.60;;;17.30;99.90;;;;;;4994352;28;20034;-87
2022/06/12 05:01:51;;;;;;;5.30;3.60;;;17.40;99.90;;;;;;4991670;28;20030;-88
2022/06/12 05:04:20;;;;;;;4.25;3.83;;;17.40;99.90;;;;;;4975350;28;20491;-88
2022/06/12 05:06:49;;;;;;;4.30;3.78;;;17.40;99.90;;;;;;4994917;28;20030;-88
2022/06/12 05:09:15;;;;;;;5.47;4.10;;;17.50;99.90;;;;;;4960679;28;20405;-88
2022/06/12 05:11:42;;;;;;;4.50;3.33;;;17.60;99.90;;;;;;4987448;28;20419;-87
2022/06/12 05:14:08;;;;;;;4.65;3.65;;;17.50;99.90;;;;;;4994112;28;20065;-88
2022/06/12 05:16:41;;;;;;;6.57;3.88;;;17.60;99.90;;;;;;4976703;28;20380;-88
2022/06/12 05:19:10;;;;;;;4.55;3.47;;;17.50;99.90;;;;;;4994369;28;20129;-87
2022/06/12 05:21:36;;;;;;;4.57;3.83;;;17.70;99.90;;;;;;4978261;28;20150;-87
2022/06/12 05:24:03;;;;;;;7.20;4.20;;;17.80;99.90;;;;;;4993092;28;20066;-88
2022/06/12 05:26:30;;;;;;;6.28;4.45;;;17.70;99.90;;;;;;4991437;28;20026;-88
2022/06/12 05:28:56;;;;;;;4.95;4.05;;;17.60;99.90;;;;;;4994092;28;20101;-88
2022/06/12 05:31:22;;;;;;;6.53;4.03;;;17.80;99.90;;;;;;4993167;28;20118;-88
2022/06/12 05:33:47;;;;;;;6.00;4.50;;;17.90;99.90;;;;;;4994724;28;20054;-88
2022/06/12 05:36:15;;;;;;;6.93;4.28;;;17.80;99.90;;;;;;4994144;28;20391;-88
2022/06/12 05:38:42;;;;;;;7.32;4.28;;;17.80;99.90;;;;;;4993830;28;20037;-88
2022/06/12 05:41:08;;;;;;;4.97;3.90;;;17.90;99.90;;;;;;4970628;28;20399;-87
2022/06/12 05:43:34;;;;;;;5.43;4.07;;;18.00;99.90;;;;;;4960403;28;20030;-87
2022/06/12 05:46:00;;;;;;;5.03;3.97;;;18.10;99.90;;;;;;4991964;28;20042;-88
2022/06/12 05:48:26;;;;;;;4.90;4.00;;;18.10;99.90;;;;;;4987594;28;20030;-88
2022/06/12 05:50:55;;;;;;;6.63;3.75;;;18.30;99.90;;;;;;4994999;28;20073;-88
2022/06/12 05:53:23;;;;;;;5.40;3.78;;;18.40;99.90;;;;;;4993420;28;20041;-87
2022/06/12 05:55:50;;;;;;;6.85;4.25;;;18.60;99.90;;;;;;4974127;28;20042;-88
2022/06/12 05:58:18;;;;;;;5.32;3.80;;;18.50;99.90;;;;;;4994177;28;20026;-88
2022/06/12 06:00:45;;;;;;;6.88;3.70;;;18.40;99.90;;;;;;4994782;28;20430;-88
2022/06/12 06:03:10;;;;;;;4.57;4.07;;;18.30;99.90;;;;;;4975350;28;20022;-88
2022/06/12 06:05:37;;;;;;;6.80;4.18;;;18.30;99.90;;;;;;4992970;28;20532;-88
2022/06/12 06:08:04;;;;;;;5.82;3.63;;;18.60;99.90;;;;;;4992425;28;20493;-88
2022/06/12 06:10:30;;;;;;;6.32;3.90;;;18.70;99.90;;;;;;4975227;28;20030;-88
2022/06/12 06:12:56;;;;;;;6.68;3.85;;;18.90;99.90;;;;;;4994469;28;20035;-88
2022/06/12 06:15:22;;;;;;;6.50;3.65;;;19.10;99.90;;;;;;4991584;28;20118;-88
2022/06/12 06:17:48;;;;;;;5.97;3.53;;;19.20;99.90;;;;;;4992202;28;20113;-87
2022/06/12 06:20:18;;;;;;;5.10;3.72;;;19.30;99.90;;;;;;4975994;28;20463;-87
2022/06/12 06:22:44;;;;;;;5.55;4.00;;;19.40;99.90;;;;;;4971467;28;20030;-88
2022/06/12 06:25:10;;;;;;;8.70;4.75;;;19.60;99.90;;;;;;4973429;28;20450;-90
2022/06/12 06:27:36;;;;;;;6.30;4.40;;;19.70;99.90;;;;;;4993600;28;20033;-87
2022/06/12 06:30:03;;;;;;;7.75;4.63;;;19.80;99.90;;;;;;4987590;28;20125;-88
2022/06/12 06:32:29;;;;;;;8.50;5.03;;;19.80;99.90;;;;;;4990489;28;20022;-87
2022/06/12 06:34:55;;;;;;;13.80;5.20;;;19.90;99.90;;;;;;4988163;28;20415;-88
2022/06/12 06:37:20;;;;;;;5.72;4.47;;;20.10;99.90;;;;;;4974370;28;20036;-89
2022/06/12 06:39:46;;;;;;;5.43;4.63;;;20.10;99.90;;;;;;4993101;28;20034;-90
2022/06/12 06:42:12;;;;;;;5.68;4.45;;;20.20;99.90;;;;;;4989863;28;20030;-89
2022/06/12 06:47:22;;;;;;;7.90;4.88;;;20.40;99.90;;;;;;4990323;28;20041;-85
2022/06/12 06:49:48;;;;;;;7.07;4.32;;;20.10;99.90;;;;;;4991038;28;20034;-84
2022/06/12 06:52:14;;;;;;;6.30;4.05;;;20.40;99.90;;;;;;4990672;28;20035;-81
2022/06/12 06:54:40;;;;;;;4.25;3.80;;;20.60;99.90;;;;;;4993251;28;20034;-83
2022/06/12 06:57:07;;;;;;;5.45;3.90;;;20.40;99.90;;;;;;4991538;28;20494;-88
2022/06/12 06:59:34;;;;;;;4.35;3.95;;;20.60;99.90;;;;;;4973004;28;20037;-85
2022/06/12 07:02:00;;;;;;;5.57;3.88;;;20.80;99.90;;;;;;4989412;28;20049;-88
2022/06/12 07:04:26;;;;;;;6.15;4.22;;;20.90;99.90;;;;;;4974467;28;20104;-86
2022/06/12 07:06:52;;;;;;;4.68;3.80;;;20.90;99.90;;;;;;4992701;28;20033;-86
2022/06/12 07:09:18;;;;;;;4.22;3.55;;;20.90;99.90;;;;;;4992107;28;20461;-85
2022/06/12 07:11:43;;;;;;;8.20;3.97;;;21.20;99.90;;;;;;4991066;28;20030;-87
2022/06/12 07:14:09;;;;;;;5.63;3.83;;;21.10;99.90;;;;;;4972437;28;20034;-88
2022/06/12 07:16:37;;;;;;;7.10;3.83;;;21.30;99.90;;;;;;4991236;28;20026;-88
2022/06/12 07:19:03;;;;;;;6.60;3.40;;;21.40;99.90;;;;;;4974947;28;20121;-88
2022/06/12 07:21:28;;;;;;;6.18;3.72;;;21.50;99.90;;;;;;4991834;28;20459;-88
2022/06/12 07:23:54;;;;;;;4.85;3.20;;;21.60;99.90;;;;;;4988788;28;20076;-86
2022/06/12 07:26:30;;;;;;;7.75;3.13;;;21.70;99.90;;;;;;4990930;28;20027;-88
2022/06/12 07:28:56;;;;;;;4.88;3.50;;;21.80;99.90;;;;;;4989740;28;20093;-87
2022/06/12 07:31:23;;;;;;;3.75;3.03;;;21.90;99.90;;;;;;4990395;28;20038;-88
2022/06/12 07:33:49;;;;;;;3.20;2.80;;;22.10;99.90;;;;;;4992765;28;20141;-88
2022/06/12 07:36:16;;;;;;;3.63;3.00;;;22.10;99.90;;;;;;4991203;28;20019;-86
2022/06/12 07:38:45;;;;;;;2.95;2.50;;;22.20;99.90;;;;;;4973768;28;20414;-86
2022/06/12 07:41:13;;;;;;;3.15;2.83;;;22.20;99.90;;;;;;4989477;28;20026;-86
2022/06/12 07:43:40;;;;;;;4.28;3.13;;;22.20;99.90;;;;;;4988059;28;20459;-86
2022/06/12 07:46:08;;;;;;;5.50;3.00;;;22.30;99.90;;;;;;4991233;28;20038;-87
2022/06/12 07:48:34;;;;;;;3.92;2.90;;;22.40;99.90;;;;;;4992267;28;20038;-87
2022/06/12 07:51:02;;;;;;;4.05;2.90;;;22.50;99.90;;;;;;4990718;28;20022;-86
2022/06/12 07:53:30;;;;;;;3.42;2.80;;;22.60;99.90;;;;;;4990599;28;20136;-86
2022/06/12 07:55:56;;;;;;;3.20;2.90;;;22.60;99.90;;;;;;4990677;28;20076;-86
2022/06/12 07:58:23;;;;;;;3.75;2.80;;;22.60;99.90;;;;;;4989380;28;20023;-86
2022/06/12 08:00:53;;;;;;;4.28;2.85;;;22.70;99.90;;;;;;4991843;28;20041;-86
2022/06/12 08:03:18;;;;;;;3.60;3.30;;;22.70;99.90;;;;;;4990631;28;20030;-84
2022/06/12 08:05:44;;;;;;;3.65;3.35;;;22.70;99.90;;;;;;4990395;28;20033;-84
2022/06/12 08:08:10;;;;;;;3.25;2.95;;;22.80;99.90;;;;;;4990659;28;20501;-84
2022/06/12 08:10:36;;;;;;;7.25;3.10;;;22.90;99.90;;;;;;4990671;28;20077;-84
2022/06/12 08:13:07;;;;;;;4.75;3.58;;;22.90;99.90;;;;;;4990859;28;20065;-84
2022/06/12 08:15:34;;;;;;;6.68;2.97;;;23.10;99.90;;;;;;4991702;28;20010;-84
2022/06/12 08:18:00;;;;;;;4.53;3.00;;;23.30;99.90;;;;;;4992504;28;20038;-87
2022/06/12 08:20:28;;;;;;;3.33;3.03;;;23.20;99.90;;;;;;4993056;28;20494;-87
2022/06/12 08:23:29;;;;;;;4.25;3.15;;;23.10;99.90;;;;;;4992915;28;20030;-87
2022/06/12 08:26:03;;;;;;;3.03;2.80;;;23.30;99.90;;;;;;4982220;28;20114;-87
2022/06/12 08:28:32;;;;;;;3.95;2.90;;;23.50;99.90;;;;;;4978030;28;20030;-87
2022/06/12 08:31:05;;;;;;;3.97;3.13;;;23.50;99.90;;;;;;4996493;28;20022;-84
2022/06/12 08:33:31;;;;;;;3.42;2.90;;;23.70;99.90;;;;;;4995589;28;20130;-84
2022/06/12 08:35:57;;;;;;;4.15;3.00;;;23.70;99.90;;;;;;4976216;28;20038;-84
2022/06/12 08:38:23;;;;;;;5.65;3.30;;;23.70;99.90;;;;;;4993641;28;20033;-84
2022/06/12 08:40:59;;;;;;;4.70;3.15;;;23.80;99.90;;;;;;4993565;28;20117;-85
2022/06/12 08:44:04;;;;;;;3.28;2.70;;;23.90;99.90;;;;;;4992043;28;20070;-84
2022/06/12 08:46:41;;;;;;;4.38;2.80;;;24.10;99.90;;;;;;4989930;28;20031;-84
2022/06/12 08:49:35;;;;;;;4.82;2.78;;;24.20;99.90;;;;;;4994525;28;20109;-84
2022/06/12 08:52:35;;;;;;;4.82;2.67;;;24.30;99.90;;;;;;4934517;28;20032;-84
2022/06/12 08:55:18;;;;;;;4.78;3.00;;;24.50;99.90;;;;;;4930759;29;20044;-85
2022/06/12 08:58:11;;;;;;;3.53;2.58;;;24.70;99.90;;;;;;4935713;29;20130;-84
2022/06/12 09:00:39;;;;;;;2.78;2.53;;;24.80;99.90;;;;;;4935305;29;20046;-84
2022/06/12 09:03:08;;;;;;;2.63;2.42;;;24.70;99.90;;;;;;4934898;29;20485;-85
2022/06/12 09:05:52;;;;;;;4.35;2.75;;;24.60;99.90;;;;;;4933510;29;20032;-84
2022/06/12 09:08:38;;;;;;;3.97;2.83;;;24.70;99.90;;;;;;4934684;29;20032;-84
2022/06/12 09:11:31;;;;;;;2.38;2.17;;;24.80;99.90;;;;;;4934379;29;20918;-85
2022/06/12 09:14:05;;;;;;;6.25;2.47;;;25.00;99.90;;;;;;4933560;29;20051;-85
2022/06/12 09:16:42;;;;;;;2.90;2.60;;;25.20;99.90;;;;;;4934872;29;20044;-85
2022/06/12 09:19:21;;;;;;;3.95;2.30;;;25.30;99.90;;;;;;4934691;29;20032;-84
2022/06/12 09:21:56;;;;;;;3.78;2.30;;;25.30;99.90;;;;;;4933416;29;20156;-84
2022/06/12 09:24:27;;;;;;;3.45;2.45;;;25.20;99.90;;;;;;4934304;29;20040;-84
2022/06/12 09:27:03;;;;;;;4.72;2.63;;;25.40;99.90;;;;;;4934480;29;20071;-84
2022/06/12 09:29:54;;;;;;;3.13;2.40;;;25.50;99.90;;;;;;4976213;28;20042;-84
2022/06/12 09:32:37;;;;;;;3.55;2.88;;;25.50;99.90;;;;;;4992779;28;20491;-85
2022/06/12 09:35:14;;;;;;;4.40;2.85;;;25.70;99.90;;;;;;4992689;28;20121;-84
2022/06/12 09:38:18;;;;;;;6.68;3.10;;;25.70;99.90;;;;;;4989741;28;20027;-85
2022/06/12 09:41:12;;;;;;;4.78;2.90;;;25.80;99.90;;;;;;4980345;28;20038;-84
2022/06/12 09:44:04;;;;;;;3.30;2.90;;;25.80;99.90;;;;;;4978943;28;20027;-85
2022/06/12 09:46:48;;;;;;;4.30;2.70;;;25.90;99.90;;;;;;4978049;28;20022;-84
2022/06/12 09:49:35;;;;;;;3.35;2.60;;;26.10;99.90;;;;;;4992777;28;20026;-85
2022/06/12 09:52:31;;;;;;;2.45;2.22;;;26.00;99.90;;;;;;4990013;28;20057;-85
2022/06/12 09:55:16;;;;;;;4.25;2.63;;;26.20;99.90;;;;;;4990520;28;20046;-85
2022/06/12 09:57:57;;;;;;;4.85;2.80;;;26.20;99.90;;;;;;4975846;28;20069;-85
2022/06/12 10:00:46;;;;;;;2.58;2.30;;;26.20;99.90;;;;;;4990420;28;20046;-85
2022/06/12 10:03:21;;;;;;;2.30;2.10;;;26.40;99.90;;;;;;4990542;28;20372;-85
2022/06/12 10:05:56;;;;;;;3.47;2.30;;;26.30;99.90;;;;;;4992448;28;20379;-84
2022/06/12 10:08:49;;;;;;;2.40;2.05;;;26.20;99.90;;;;;;4991943;28;20022;-84
2022/06/12 10:11:42;;;;;;;2.92;2.50;;;26.50;99.90;;;;;;4991197;28;20030;-85
2022/06/12 10:14:47;;;;;;;2.55;2.35;;;26.40;99.90;;;;;;4992011;28;20038;-84
2022/06/12 10:17:32;;;;;;;3.90;2.28;;;26.50;99.90;;;;;;4909548;29;20067;-85
2022/06/12 10:20:07;;;;;;;3.55;2.40;;;26.80;99.90;;;;;;4914441;28;20048;-85
2022/06/12 10:22:35;;;;;;;4.03;2.13;;;26.70;99.90;;;;;;4914199;29;20551;-85
2022/06/12 10:25:04;;;;;;;2.67;2.45;;;26.80;99.90;;;;;;4914943;29;20119;-85
2022/06/12 10:27:53;;;;;;;3.90;2.60;;;26.90;99.90;;;;;;4914242;29;20417;-85
2022/06/12 10:30:32;;;;;;;3.00;2.70;;;27.00;99.90;;;;;;4914310;29;20080;-85
2022/06/12 10:33:08;;;;;;;6.45;2.35;;;26.90;99.90;;;;;;4913282;29;20048;-85
2022/06/12 10:35:55;;;;;;;3.67;2.63;;;27.00;99.90;;;;;;4914035;29;20470;-85
2022/06/12 10:38:26;;;;;;;3.13;2.45;;;27.10;99.90;;;;;;4913958;29;20457;-85
2022/06/12 10:40:58;;;;;;;3.83;2.60;;;27.30;99.90;;;;;;4913492;29;20028;-85
2022/06/12 10:43:31;;;;;;;2.95;2.70;;;27.20;99.90;;;;;;4914282;29;20099;-85
2022/06/12 10:46:20;;;;;;;4.78;2.65;;;27.30;99.90;;;;;;4900838;29;20102;-85
2022/06/12 10:49:17;;;;;;;4.97;2.50;;;27.30;99.90;;;;;;4906284;29;20119;-85
2022/06/12 10:51:45;;;;;;;3.30;2.40;;;27.40;99.90;;;;;;4915433;28;20040;-85
2022/06/12 10:54:18;;;;;;;2.30;2.10;;;27.30;99.90;;;;;;4990657;28;20514;-85
2022/06/12 10:56:58;;;;;;;3.28;2.35;;;27.50;99.90;;;;;;4988598;28;20088;-84
2022/06/12 10:59:45;;;;;;;2.78;2.47;;;27.60;99.90;;;;;;4990236;28;20869;-86
2022/06/12 11:02:26;;;;;;;2.85;2.55;;;27.70;99.90;;;;;;4991358;28;20116;-85
2022/06/12 11:05:09;;;;;;;3.42;3.13;;;27.80;99.90;;;;;;4989840;28;20034;-85
2022/06/12 11:07:42;;;;;;;3.58;2.65;;;27.80;99.90;;;;;;4976801;28;20491;-85
2022/06/12 11:10:28;;;;;;;3.15;2.50;;;27.90;99.90;;;;;;4991976;28;20360;-85
2022/06/12 11:13:08;;;;;;;3.42;2.60;;;27.90;99.90;;;;;;4987331;28;20077;-85
2022/06/12 11:15:46;;;;;;;4.63;2.70;;;28.10;99.90;;;;;;4992714;28;20494;-85
2022/06/12 11:18:26;;;;;;;3.80;2.53;;;28.10;99.90;;;;;;4991152;28;20030;-85
2022/06/12 11:21:01;;;;;;;3.95;2.50;;;28.10;99.90;;;;;;4990627;28;20023;-85
2022/06/12 11:23:32;;;;;;;3.38;2.53;;;28.20;99.90;;;;;;4973820;28;20435;-85
2022/06/12 11:26:04;;;;;;;3.60;2.30;;;28.30;99.90;;;;;;4990156;28;20030;-85
2022/06/12 11:28:29;;;;;;;4.32;2.30;;;28.40;99.90;;;;;;4973079;28;20109;-86
2022/06/12 11:31:13;;;;;;;3.20;2.33;;;28.50;99.90;;;;;;4992188;28;20130;-86
2022/06/12 11:33:45;;;;;;;3.78;2.60;;;28.60;99.90;;;;;;4990807;28;20047;-85
2022/06/12 11:36:48;;;;;;;3.45;2.40;;;28.80;99.90;;;;;;4989363;28;20045;-85
2022/06/12 11:39:58;;;;;;;3.95;2.58;;;29.20;99.90;;;;;;4972553;28;20088;-85
2022/06/12 11:42:32;;;;;;;4.20;2.67;;;29.20;99.90;;;;;;4989239;28;20034;-85
2022/06/12 11:45:25;;;;;;;4.05;2.60;;;29.40;99.90;;;;;;4990745;28;20031;-85
2022/06/12 11:48:04;;;;;;;3.70;2.58;;;29.40;99.90;;;;;;4990702;28;20514;-86
2022/06/12 11:50:41;;;;;;;3.22;2.30;;;29.30;99.90;;;;;;4990390;28;20109;-86
2022/06/12 11:53:16;;;;;;;3.25;2.33;;;29.40;99.90;;;;;;4994685;28;20050;-86
2022/06/12 11:55:49;;;;;;;3.30;2.00;;;29.70;99.90;;;;;;4994778;28;20037;-86
2022/06/12 11:58:41;;;;;;;3.53;1.98;;;29.90;99.90;;;;;;4993847;28;20045;-86
2022/06/12 12:01:25;;;;;;;2.20;2.00;;;30.20;99.90;;;;;;4981135;28;20050;-86
2022/06/12 12:04:28;;;;;;;2.92;2.20;;;30.50;99.90;;;;;;4996096;28;20027;-86
2022/06/12 12:07:17;;;;;;;2.20;1.90;;;31.40;99.90;;;;;;4992620;28;20038;-87
2022/06/12 12:09:51;;;;;;;2.30;2.10;;;33.40;99.90;;;;;;4995241;28;20027;-87
2022/06/12 12:12:27;;;;;;;2.30;2.10;;;35.80;99.90;;;;;;4991707;28;20070;-87
2022/06/12 12:14:54;;;;;;;2.15;1.80;;;37.00;99.90;;;;;;4992204;28;20579;-86
2022/06/12 12:17:42;;;;;;;2.40;2.00;;;38.40;99.90;;;;;;4992991;28;20086;-86
2022/06/12 12:20:28;;;;;;;1.80;1.70;;;38.70;99.90;;;;;;4994076;28;20042;-86
2022/06/12 12:22:59;;;;;;;3.38;1.67;;;39.10;99.90;;;;;;4994481;28;20026;-87
2022/06/12 12:25:49;;;;;;;2.92;1.70;;;38.70;99.90;;;;;;4994355;28;20057;-86
2022/06/12 12:28:31;;;;;;;5.30;1.90;;;39.60;99.90;;;;;;4992436;28;20042;-87
2022/06/12 12:31:06;;;;;;;1.90;1.80;;;40.40;99.90;;;;;;4992378;28;20556;-86
2022/06/12 12:33:33;;;;;;;1.88;1.77;;;40.80;99.90;;;;;;4994695;28;20506;-86
2022/06/12 12:41:42;;;;;;;2.03;1.75;;;40.90;99.90;;;;;;4993383;28;20114;-87
2022/06/12 12:44:08;;;;;;;2.20;1.60;;;41.30;99.90;;;;;;4993840;28;20019;-86
2022/06/12 12:46:45;;;;;;;1.90;1.75;;;41.10;99.90;;;;;;4994045;28;20050;-86
2022/06/12 12:49:22;;;;;;;4.15;2.10;;;41.00;99.90;;;;;;4994278;28;20031;-87
2022/06/12 12:51:48;;;;;;;2.35;1.90;;;41.00;99.90;;;;;;4995089;28;20032;-87
2022/06/12 12:54:20;;;;;;;3.90;1.92;;;40.50;99.90;;;;;;4992407;28;20046;-87
2022/06/12 12:57:06;;;;;;;2.00;1.70;;;40.20;99.90;;;;;;4993350;28;20019;-87
2022/06/12 12:59:42;;;;;;;3.65;1.90;;;40.10;99.90;;;;;;4986697;28;20050;-87
2022/06/12 13:02:33;;;;;;;3.28;1.95;;;40.10;99.90;;;;;;4993091;28;20026;-87
2022/06/12 13:05:12;;;;;;;4.05;1.90;;;39.60;99.90;;;;;;4993512;28;20097;-87
2022/06/12 13:07:51;;;;;;;1.73;1.63;;;39.30;99.90;;;;;;4979505;28;20490;-87
2022/06/12 13:10:42;;;;;;;3.63;1.80;;;38.80;99.90;;;;;;4993049;28;20034;-87
2022/06/12 13:13:41;;;;;;;1.63;1.50;;;38.40;99.90;;;;;;4982979;28;20058;-87
2022/06/12 13:16:30;;;;;;;2.25;1.58;;;38.20;99.90;;;;;;4991488;28;20034;-87
2022/06/12 13:19:16;;;;;;;2.22;1.60;;;38.60;99.90;;;;;;4990428;28;20034;-87
2022/06/12 13:22:03;;;;;;;5.28;1.75;;;38.30;99.90;;;;;;4992982;28;20412;-86
2022/06/12 13:24:32;;;;;;;1.80;1.70;;;38.10;99.90;;;;;;4992693;28;20392;-87
2022/06/12 13:26:58;;;;;;;1.73;1.63;;;37.30;99.90;;;;;;4991944;28;20545;-87
2022/06/12 13:29:25;;;;;;;1.52;1.42;;;38.10;99.90;;;;;;4993096;28;20097;-87
2022/06/12 13:32:22;;;;;;;1.70;1.60;;;38.50;99.90;;;;;;4991578;28;20027;-87
2022/06/12 13:34:58;;;;;;;1.52;1.40;;;38.70;99.90;;;;;;4978780;28;20063;-87
2022/06/12 13:37:28;;;;;;;1.95;1.40;;;38.90;99.90;;;;;;4992993;28;20022;-87
2022/06/12 13:39:54;;;;;;;2.55;1.52;;;38.90;99.90;;;;;;4993219;28;20022;-87
2022/06/12 13:42:24;;;;;;;1.67;1.58;;;38.50;99.90;;;;;;4992623;28;20033;-87